createdAt,value
2022-09-15T00:00:46.072Z,33.10
2022-09-15T00:01:46.116Z,32.40
2022-09-15T00:02:46.162Z,32.10
2022-09-15T00:03:46.032Z,35.40
2022-09-15T00:04:46.003Z,33.40
2022-09-15T00:05:46.003Z,32.80
2022-09-15T00:06:45.990Z,37.70
2022-09-15T00:07:46.004Z,36.90
2022-09-15T00:08:45.967Z,31.60
2022-09-15T00:09:45.963Z,30.20
2022-09-15T00:10:45.992Z,28.90
2022-09-15T00:11:45.932Z,33.20
2022-09-15T00:12:45.922Z,29.40
2022-09-15T00:13:45.933Z,31.10
2022-09-15T00:14:45.902Z,31.10
2022-09-15T00:15:45.902Z,29.50
2022-09-15T00:16:45.926Z,30.90
2022-09-15T00:17:45.882Z,32.00
2022-09-15T00:18:45.853Z,31.00
2022-09-15T00:19:45.852Z,31.20
2022-09-15T00:20:45.862Z,27.60
2022-09-15T00:21:45.836Z,29.50
2022-09-15T00:22:45.856Z,30.90
2022-09-15T00:23:45.810Z,30.50
2022-09-15T00:24:45.802Z,26.60
2022-09-15T00:25:45.828Z,27.00
2022-09-15T00:26:45.773Z,29.50
2022-09-15T00:27:45.793Z,30.00
2022-09-15T00:28:45.785Z,30.90
2022-09-15T00:29:45.753Z,27.20
2022-09-15T00:30:45.771Z,28.90
2022-09-15T00:31:45.745Z,29.70
2022-09-15T00:32:45.712Z,28.40
2022-09-15T00:33:45.741Z,30.90
2022-09-15T00:34:45.693Z,31.20
2022-09-15T00:35:45.684Z,29.90
2022-09-15T00:36:45.672Z,28.30
2022-09-15T00:37:45.663Z,30.60
2022-09-15T00:38:45.683Z,29.00
2022-09-15T00:39:45.677Z,32.10
2022-09-15T00:40:45.623Z,30.90
2022-09-15T00:41:45.641Z,32.70
2022-09-15T00:42:45.605Z,33.30
2022-09-15T00:43:45.593Z,29.30
2022-09-15T00:44:45.634Z,29.90
2022-09-15T00:45:45.642Z,29.30
2022-09-15T00:46:54.796Z,30.40
2022-09-15T00:47:46.555Z,27.40
2022-09-15T00:48:45.585Z,32.20
2022-09-15T00:49:45.540Z,33.60
2022-09-15T00:50:45.522Z,33.40
2022-09-15T00:51:45.540Z,34.20
2022-09-15T00:52:45.499Z,35.10
2022-09-15T00:53:45.485Z,36.30
2022-09-15T00:54:45.475Z,35.90
2022-09-15T00:55:45.472Z,37.60
2022-09-15T00:56:45.453Z,33.30
2022-09-15T00:57:45.492Z,32.80
2022-09-15T00:58:45.433Z,32.10
2022-09-15T00:59:45.433Z,30.80
2022-09-15T01:00:45.462Z,32.80
2022-09-15T01:01:45.484Z,33.80
2022-09-15T01:02:45.431Z,34.30
2022-09-15T01:03:45.412Z,34.30
2022-09-15T01:04:45.362Z,32.60
2022-09-15T01:05:45.362Z,32.20
2022-09-15T01:06:45.382Z,29.80
2022-09-15T01:07:45.334Z,31.50
2022-09-15T01:08:45.323Z,32.90
2022-09-15T01:09:45.319Z,31.90
2022-09-15T01:10:45.303Z,30.60
2022-09-15T01:11:45.300Z,30.40
2022-09-15T01:12:45.331Z,31.30
2022-09-15T01:13:45.272Z,34.30
2022-09-15T01:14:45.252Z,30.60
2022-09-15T01:15:45.253Z,31.50
2022-09-15T01:16:45.296Z,31.30
2022-09-15T01:17:45.233Z,34.00
2022-09-15T01:18:45.254Z,29.30
2022-09-15T01:19:45.212Z,28.50
2022-09-15T01:20:45.192Z,33.40
2022-09-15T01:21:45.184Z,32.10
2022-09-15T01:22:45.170Z,28.90
2022-09-15T01:23:45.205Z,31.30
2022-09-15T01:24:45.181Z,31.30
2022-09-15T01:25:45.164Z,31.20
2022-09-15T01:26:45.121Z,30.20
2022-09-15T01:27:45.112Z,28.30
2022-09-15T01:28:45.140Z,28.40
2022-09-15T01:29:45.099Z,28.70
2022-09-15T01:30:45.081Z,33.40
2022-09-15T01:31:45.083Z,35.20
2022-09-15T01:32:45.062Z,31.30
2022-09-15T01:33:45.052Z,31.60
2022-09-15T01:34:45.064Z,32.10
2022-09-15T01:35:45.032Z,35.50
2022-09-15T01:36:45.031Z,32.90
2022-09-15T01:37:45.010Z,35.70
2022-09-15T01:38:45.013Z,35.30
2022-09-15T01:39:45.031Z,33.60
2022-09-15T01:40:45.003Z,35.40
2022-09-15T01:41:44.961Z,38.30
2022-09-15T01:42:44.953Z,38.60
2022-09-15T01:43:44.944Z,38.60
2022-09-15T01:44:44.939Z,37.30
2022-09-15T01:45:44.998Z,33.40
2022-09-15T01:46:44.932Z,36.40
2022-09-15T01:47:44.896Z,35.20
2022-09-15T01:48:44.893Z,32.80
2022-09-15T01:49:44.882Z,30.90
2022-09-15T01:50:44.893Z,30.40
2022-09-15T01:51:44.859Z,31.40
2022-09-15T01:52:44.858Z,32.80
2022-09-15T01:53:44.930Z,34.10
2022-09-15T01:54:44.822Z,35.20
2022-09-15T01:55:44.813Z,38.50
2022-09-15T01:56:44.803Z,35.80
2022-09-15T01:57:44.808Z,35.40
2022-09-15T01:58:44.782Z,31.80
2022-09-15T01:59:44.852Z,32.70
2022-09-15T02:00:44.811Z,30.90
2022-09-15T02:01:44.822Z,29.10
2022-09-15T02:02:44.755Z,31.50
2022-09-15T02:03:44.738Z,32.40
2022-09-15T02:04:44.712Z,38.10
2022-09-15T02:05:44.751Z,38.30
2022-09-15T02:06:44.692Z,40.80
2022-09-15T02:07:44.682Z,36.30
2022-09-15T02:08:44.694Z,33.30
2022-09-15T02:09:44.661Z,33.60
2022-09-15T02:10:44.652Z,32.20
2022-09-15T02:11:44.732Z,31.70
2022-09-15T02:12:44.645Z,35.00
2022-09-15T02:13:44.621Z,37.00
2022-09-15T02:14:44.610Z,33.40
2022-09-15T02:15:44.591Z,35.80
2022-09-15T02:16:44.626Z,33.00
2022-09-15T02:17:44.603Z,34.90
2022-09-15T02:18:44.562Z,36.00
2022-09-15T02:19:45.499Z,42.20
2022-09-15T02:20:44.542Z,36.00
2022-09-15T02:21:44.532Z,33.30
2022-09-15T02:22:44.564Z,34.30
2022-09-15T02:23:44.574Z,32.60
2022-09-15T02:24:44.564Z,30.00
2022-09-15T02:25:44.482Z,32.90
2022-09-15T02:26:44.480Z,29.80
2022-09-15T02:27:44.462Z,30.60
2022-09-15T02:28:44.461Z,28.80
2022-09-15T02:29:44.442Z,29.80
2022-09-15T02:30:44.462Z,30.00
2022-09-15T02:31:44.529Z,30.80
2022-09-15T02:32:44.421Z,30.50
2022-09-15T02:33:44.400Z,29.00
2022-09-15T02:34:44.392Z,28.50
2022-09-15T02:35:44.403Z,28.80
2022-09-15T02:36:44.373Z,28.60
2022-09-15T02:37:44.361Z,27.60
2022-09-15T02:38:44.420Z,30.30
2022-09-15T02:39:44.423Z,29.20
2022-09-15T02:40:44.356Z,31.00
2022-09-15T02:41:44.321Z,29.10
2022-09-15T02:42:44.339Z,28.70
2022-09-15T02:43:44.292Z,35.50
2022-09-15T02:44:44.292Z,31.10
2022-09-15T02:45:44.329Z,32.70
2022-09-15T02:46:44.261Z,34.50
2022-09-15T02:47:44.252Z,37.70
2022-09-15T02:48:44.281Z,35.80
2022-09-15T02:49:44.231Z,36.00
2022-09-15T02:50:45.290Z,38.30
2022-09-15T02:51:44.213Z,36.60
2022-09-15T02:52:44.201Z,39.20
2022-09-15T02:53:44.307Z,39.50
2022-09-15T02:54:44.180Z,38.90
2022-09-15T02:55:44.161Z,36.50
2022-09-15T02:56:44.162Z,39.00
2022-09-15T02:57:44.141Z,39.00
2022-09-15T02:58:44.135Z,38.70
2022-09-15T02:59:44.152Z,36.40
2022-09-15T03:00:44.174Z,40.60
2022-09-15T03:01:44.165Z,40.80
2022-09-15T03:02:44.094Z,43.80
2022-09-15T03:03:44.073Z,38.50
2022-09-15T03:04:44.071Z,41.30
2022-09-15T03:05:44.081Z,39.90
2022-09-15T03:06:44.060Z,42.40
2022-09-15T03:07:44.043Z,44.10
2022-09-15T03:08:44.031Z,38.10
2022-09-15T03:09:44.041Z,40.00
2022-09-15T03:10:44.043Z,45.10
2022-09-15T03:11:44.042Z,40.20
2022-09-15T03:12:44.001Z,44.40
2022-09-15T03:13:43.971Z,40.80
2022-09-15T03:14:43.962Z,41.70
2022-09-15T03:15:43.952Z,42.40
2022-09-15T03:16:43.957Z,42.20
2022-09-15T03:17:43.961Z,44.90
2022-09-15T03:18:43.922Z,43.90
2022-09-15T03:19:43.908Z,41.50
2022-09-15T03:20:43.901Z,43.80
2022-09-15T03:21:43.890Z,45.70
2022-09-15T03:22:43.881Z,42.90
2022-09-15T03:23:44.001Z,45.40
2022-09-15T03:24:43.851Z,44.00
2022-09-15T03:25:43.844Z,45.70
2022-09-15T03:26:43.831Z,46.90
2022-09-15T03:27:43.823Z,43.40
2022-09-15T03:28:43.811Z,42.60
2022-09-15T03:29:43.850Z,40.80
2022-09-15T03:30:43.824Z,46.20
2022-09-15T03:31:43.892Z,43.80
2022-09-15T03:32:43.785Z,46.40
2022-09-15T03:33:43.759Z,44.20
2022-09-15T03:34:43.747Z,42.80
2022-09-15T03:35:43.762Z,41.20
2022-09-15T03:36:43.731Z,44.80
2022-09-15T03:37:43.744Z,41.50
2022-09-15T03:38:43.706Z,44.10
2022-09-15T03:39:43.701Z,39.40
2022-09-15T03:40:43.681Z,38.00
2022-09-15T03:41:43.671Z,41.80
2022-09-15T03:42:43.692Z,41.90
2022-09-15T03:43:43.651Z,41.60
2022-09-15T03:44:43.662Z,43.40
2022-09-15T03:45:43.650Z,41.00
2022-09-15T03:46:43.641Z,41.90
2022-09-15T03:47:43.630Z,41.10
2022-09-15T03:48:43.600Z,40.20
2022-09-15T03:49:43.580Z,41.60
2022-09-15T03:50:43.579Z,48.20
2022-09-15T03:51:43.570Z,46.30
2022-09-15T03:52:43.580Z,41.60
2022-09-15T03:53:43.570Z,42.90
2022-09-15T03:54:43.569Z,44.90
2022-09-15T03:55:43.520Z,45.30
2022-09-15T03:56:43.510Z,40.00
2022-09-15T03:57:43.490Z,44.30
2022-09-15T03:58:43.495Z,45.90
2022-09-15T03:59:43.472Z,41.10
2022-09-15T04:00:43.618Z,42.10
2022-09-15T04:01:43.541Z,41.80
2022-09-15T04:02:43.449Z,43.30
2022-09-15T04:03:47.566Z,45.10
2022-09-15T04:04:44.460Z,42.50
2022-09-15T04:05:43.410Z,46.30
2022-09-15T04:06:43.406Z,43.00
2022-09-15T04:07:43.390Z,42.50
2022-09-15T04:08:43.421Z,43.20
2022-09-15T04:09:43.383Z,38.00
2022-09-15T04:10:43.391Z,40.40
2022-09-15T04:11:43.349Z,40.20
2022-09-15T04:12:43.340Z,41.90
2022-09-15T04:13:43.336Z,43.30
2022-09-15T04:14:43.350Z,42.40
2022-09-15T04:15:43.309Z,40.50
2022-09-15T04:16:43.376Z,42.20
2022-09-15T04:17:43.281Z,40.80
2022-09-15T04:18:43.304Z,41.90
2022-09-15T04:19:43.351Z,39.90
2022-09-15T04:21:52.774Z,36.90
2022-09-15T04:22:52.734Z,38.10
2022-09-15T04:23:52.801Z,37.10
2022-09-15T04:24:52.714Z,38.90
2022-09-15T04:25:52.705Z,38.40
2022-09-15T04:26:52.785Z,36.90
2022-09-15T04:27:52.734Z,37.10
2022-09-15T04:28:52.718Z,37.10
2022-09-15T04:29:52.655Z,39.80
2022-09-15T04:30:52.651Z,35.90
2022-09-15T04:31:52.695Z,37.20
2022-09-15T04:32:52.636Z,34.80
2022-09-15T04:33:52.649Z,38.80
2022-09-15T04:34:52.607Z,37.90
2022-09-15T04:35:52.595Z,36.20
2022-09-15T04:36:52.628Z,37.10
2022-09-15T04:37:52.603Z,36.60
2022-09-15T04:38:52.759Z,36.50
2022-09-15T04:39:52.651Z,34.10
2022-09-15T04:40:52.542Z,39.60
2022-09-15T04:41:52.525Z,36.60
2022-09-15T04:42:52.656Z,40.00
2022-09-15T04:43:52.640Z,36.10
2022-09-15T04:44:52.519Z,36.10
2022-09-15T04:45:52.484Z,34.00
2022-09-15T04:46:52.617Z,35.50
2022-09-15T04:47:52.465Z,36.40
2022-09-15T04:48:52.465Z,37.70
2022-09-15T04:49:52.445Z,33.80
2022-09-15T04:50:52.435Z,36.50
2022-09-15T04:51:52.424Z,35.90
2022-09-15T04:52:52.445Z,36.60
2022-09-15T04:53:52.526Z,37.50
2022-09-15T04:54:52.423Z,34.20
2022-09-15T04:55:52.385Z,37.90
2022-09-15T04:56:52.373Z,35.40
2022-09-15T04:57:52.364Z,36.00
2022-09-15T04:58:52.404Z,39.20
2022-09-15T04:59:52.372Z,40.20
2022-09-15T05:00:52.402Z,37.80
2022-09-15T05:01:52.363Z,37.70
2022-09-15T05:02:52.302Z,31.80
2022-09-15T05:03:52.293Z,38.90
2022-09-15T05:04:52.332Z,37.40
2022-09-15T05:05:52.275Z,39.80
2022-09-15T05:06:52.259Z,38.10
2022-09-15T05:07:52.250Z,41.70
2022-09-15T05:08:52.336Z,38.40
2022-09-15T05:09:52.231Z,38.70
2022-09-15T05:10:52.247Z,41.30
2022-09-15T05:11:52.204Z,41.40
2022-09-15T05:12:52.195Z,38.70
2022-09-15T05:13:52.188Z,42.50
2022-09-15T05:14:52.205Z,38.50
2022-09-15T05:15:52.214Z,40.40
2022-09-15T05:16:52.154Z,38.50
2022-09-15T05:17:52.134Z,42.90
2022-09-15T05:18:52.135Z,37.90
2022-09-15T05:19:52.142Z,40.30
2022-09-15T05:20:52.114Z,43.40
2022-09-15T05:21:52.124Z,42.00
2022-09-15T05:22:52.094Z,42.50
2022-09-15T05:23:52.333Z,42.30
2022-09-15T05:24:52.074Z,40.00
2022-09-15T05:25:52.054Z,40.10
2022-09-15T05:26:52.068Z,39.40
2022-09-15T05:27:52.034Z,39.20
2022-09-15T05:28:52.023Z,40.50
2022-09-15T05:30:04.446Z,41.60
2022-09-15T05:30:53.036Z,39.90
2022-09-15T05:31:52.013Z,43.20
2022-09-15T05:32:52.033Z,41.70
2022-09-15T05:33:51.984Z,42.30
2022-09-15T05:34:51.954Z,41.00
2022-09-15T05:35:51.944Z,41.70
2022-09-15T05:36:52.023Z,43.40
2022-09-15T05:37:51.916Z,43.10
2022-09-15T05:38:52.097Z,37.80
2022-09-15T05:39:51.923Z,43.40
2022-09-15T05:40:51.895Z,37.20
2022-09-15T05:41:51.903Z,41.60
2022-09-15T05:42:51.905Z,41.80
2022-09-15T05:43:51.894Z,44.20
2022-09-15T05:44:51.844Z,42.50
2022-09-15T05:45:51.834Z,41.80
2022-09-15T05:46:51.867Z,43.60
2022-09-15T05:47:51.805Z,43.10
2022-09-15T05:48:51.831Z,39.00
2022-09-15T05:49:51.824Z,41.90
2022-09-15T05:50:51.774Z,37.10
2022-09-15T05:51:51.774Z,40.00
2022-09-15T05:52:51.762Z,41.40
2022-09-15T05:53:51.905Z,37.40
2022-09-15T05:54:54.706Z,38.30
2022-09-15T05:55:52.714Z,36.50
2022-09-15T05:56:51.716Z,36.60
2022-09-15T05:57:51.726Z,41.30
2022-09-15T05:58:51.704Z,41.10
2022-09-15T05:59:51.674Z,39.70
2022-09-15T06:00:51.672Z,38.10
2022-09-15T06:01:51.720Z,39.00
2022-09-15T06:02:51.738Z,41.10
2022-09-15T06:03:51.662Z,37.00
2022-09-15T06:04:51.630Z,38.70
2022-09-15T06:05:51.613Z,38.80
2022-09-15T06:06:51.603Z,37.80
2022-09-15T06:07:51.594Z,40.20
2022-09-15T06:08:55.665Z,40.50
2022-09-15T06:09:52.614Z,41.00
2022-09-15T06:10:51.553Z,41.80
2022-09-15T06:11:51.574Z,41.30
2022-09-15T06:12:51.534Z,38.30
2022-09-15T06:13:51.539Z,37.20
2022-09-15T06:14:51.561Z,40.40
2022-09-15T06:15:51.586Z,41.10
2022-09-15T06:16:51.602Z,40.30
2022-09-15T06:17:51.483Z,39.20
2022-09-15T06:18:51.688Z,36.90
2022-09-15T06:19:51.463Z,38.10
2022-09-15T06:20:51.453Z,38.00
2022-09-15T06:21:51.434Z,39.90
2022-09-15T06:22:51.453Z,39.20
2022-09-15T06:23:51.416Z,42.50
2022-09-15T06:24:51.413Z,38.40
2022-09-15T06:25:51.394Z,39.70
2022-09-15T06:26:53.164Z,40.10
2022-09-15T06:27:51.395Z,35.30
2022-09-15T06:28:51.364Z,38.60
2022-09-15T06:29:51.354Z,36.80
2022-09-15T06:30:51.345Z,39.80
2022-09-15T06:31:51.416Z,38.80
2022-09-15T06:32:51.338Z,38.70
2022-09-15T06:33:51.592Z,36.80
2022-09-15T06:34:51.313Z,39.90
2022-09-15T06:35:51.293Z,36.80
2022-09-15T06:36:51.274Z,34.10
2022-09-15T06:37:51.263Z,33.60
2022-09-15T06:38:51.264Z,35.00
2022-09-15T06:39:51.443Z,40.40
2022-09-15T06:40:51.234Z,35.00
2022-09-15T06:42:02.296Z,34.40
2022-09-15T06:42:52.222Z,37.00
2022-09-15T06:43:57.023Z,37.50
2022-09-15T06:44:51.193Z,38.00
2022-09-15T06:45:51.292Z,35.00
2022-09-15T06:46:51.164Z,35.50
2022-09-15T06:48:07.407Z,35.90
2022-09-15T06:48:52.156Z,30.60
2022-09-15T06:49:51.153Z,34.70
2022-09-15T06:50:51.123Z,31.30
2022-09-15T06:51:51.103Z,34.80
2022-09-15T06:52:51.103Z,29.20
2022-09-15T06:53:51.126Z,33.60
2022-09-15T06:54:51.085Z,30.80
2022-09-15T06:55:51.075Z,32.90
2022-09-15T06:56:51.094Z,28.60
2022-09-15T06:57:51.130Z,30.90
2022-09-15T06:58:51.135Z,32.80
2022-09-15T06:59:51.058Z,30.20
2022-09-15T07:00:51.033Z,31.20
2022-09-15T07:01:51.073Z,28.50
2022-09-15T07:02:51.064Z,30.00
2022-09-15T07:03:50.976Z,29.90
2022-09-15T07:04:50.974Z,34.40
2022-09-15T07:05:50.954Z,31.50
2022-09-15T07:06:50.983Z,27.40
2022-09-15T07:07:50.936Z,28.80
2022-09-15T07:08:51.085Z,26.60
2022-09-15T07:09:50.916Z,31.60
2022-09-15T07:10:50.913Z,26.40
2022-09-15T07:11:50.891Z,31.30
2022-09-15T07:12:50.933Z,26.00
2022-09-15T07:13:50.874Z,27.30
2022-09-15T07:14:50.901Z,29.90
2022-09-15T07:15:50.965Z,27.00
2022-09-15T07:16:50.920Z,27.60
2022-09-15T07:17:50.823Z,26.60
2022-09-15T07:18:50.995Z,27.10
2022-09-15T07:19:50.811Z,25.70
2022-09-15T07:20:50.794Z,30.40
2022-09-15T07:21:51.033Z,24.30
2022-09-15T07:22:50.772Z,27.50
2022-09-15T07:23:50.764Z,23.70
2022-09-15T07:24:50.766Z,24.60
2022-09-15T07:25:50.743Z,26.20
2022-09-15T07:26:51.023Z,251.30
2022-09-15T07:27:50.723Z,29.90
2022-09-15T07:28:50.704Z,22.80
2022-09-15T07:29:50.703Z,24.20
2022-09-15T07:30:50.696Z,26.90
2022-09-15T07:31:51.135Z,23.50
2022-09-15T07:32:50.663Z,24.30
2022-09-15T07:33:50.701Z,23.80
2022-09-15T07:34:50.653Z,26.70
2022-09-15T07:35:50.668Z,23.10
2022-09-15T07:36:50.623Z,24.40
2022-09-15T07:37:50.602Z,25.30
2022-09-15T07:38:50.600Z,23.40
2022-09-15T07:39:50.646Z,21.60
2022-09-15T07:40:50.573Z,23.40
2022-09-15T07:41:50.582Z,20.10
2022-09-15T07:42:50.564Z,24.70
2022-09-15T07:43:50.546Z,23.90
2022-09-15T07:44:50.582Z,21.70
2022-09-15T07:45:50.584Z,22.80
2022-09-15T07:46:50.543Z,21.60
2022-09-15T07:47:50.493Z,18.60
2022-09-15T07:48:50.493Z,19.60
2022-09-15T07:49:50.484Z,19.60
2022-09-15T07:50:50.509Z,18.20
2022-09-15T07:51:50.532Z,17.50
2022-09-15T07:52:50.442Z,18.30
2022-09-15T07:53:50.440Z,17.10
2022-09-15T07:54:50.452Z,18.00
2022-09-15T07:55:50.416Z,18.40
2022-09-15T07:56:50.402Z,16.20
2022-09-15T07:57:50.391Z,17.00
2022-09-15T07:58:50.390Z,15.90
2022-09-15T07:59:50.413Z,17.90
2022-09-15T08:00:50.392Z,20.20
2022-09-15T08:01:50.394Z,19.50
2022-09-15T08:02:50.341Z,17.10
2022-09-15T08:03:50.330Z,16.80
2022-09-15T08:04:50.354Z,18.50
2022-09-15T08:05:50.334Z,17.90
2022-09-15T08:06:50.344Z,18.10
2022-09-15T08:07:50.295Z,16.30
2022-09-15T08:08:50.286Z,17.80
2022-09-15T08:09:50.271Z,18.60
2022-09-15T08:10:50.271Z,18.30
2022-09-15T08:11:50.289Z,16.80
2022-09-15T08:12:50.233Z,16.40
2022-09-15T08:13:50.273Z,16.20
2022-09-15T08:14:50.221Z,17.50
2022-09-15T08:15:50.242Z,15.30
2022-09-15T08:16:50.233Z,14.30
2022-09-15T08:17:50.250Z,13.30
2022-09-15T08:18:50.173Z,13.20
2022-09-15T08:19:50.153Z,13.50
2022-09-15T08:20:50.142Z,15.80
2022-09-15T08:21:50.134Z,13.30
2022-09-15T08:22:50.153Z,14.20
2022-09-15T08:23:50.114Z,13.50
2022-09-15T08:24:50.093Z,11.40
2022-09-15T08:25:50.092Z,12.50
2022-09-15T08:26:50.082Z,13.50
2022-09-15T08:27:50.093Z,14.60
2022-09-15T08:28:51.890Z,14.80
2022-09-15T08:29:50.090Z,14.30
2022-09-15T08:30:50.061Z,11.60
2022-09-15T08:31:50.143Z,12.70
2022-09-15T08:32:50.023Z,11.70
2022-09-15T08:33:50.011Z,13.90
2022-09-15T08:34:50.004Z,10.80
2022-09-15T08:35:49.992Z,13.80
2022-09-15T08:36:50.013Z,12.60
2022-09-15T08:37:49.964Z,12.80
2022-09-15T08:38:49.980Z,14.10
2022-09-15T08:39:49.960Z,10.90
2022-09-15T08:40:49.928Z,13.40
2022-09-15T08:41:49.978Z,10.40
2022-09-15T08:42:49.903Z,17.70
2022-09-15T08:43:49.894Z,11.90
2022-09-15T08:44:49.883Z,9.40
2022-09-15T08:45:49.883Z,8.40
2022-09-15T08:46:49.893Z,10.60
2022-09-15T08:47:49.891Z,11.20
2022-09-15T08:48:49.835Z,10.30
2022-09-15T08:49:52.248Z,11.20
2022-09-15T08:50:49.824Z,9.00
2022-09-15T08:51:49.843Z,8.90
2022-09-15T08:52:49.794Z,10.50
2022-09-15T08:53:49.784Z,10.90
2022-09-15T08:54:49.829Z,15.30
2022-09-15T08:55:49.795Z,9.60
2022-09-15T08:56:49.774Z,11.30
2022-09-15T08:57:49.750Z,8.90
2022-09-15T08:58:49.763Z,12.20
2022-09-15T08:59:49.715Z,10.90
2022-09-15T09:00:49.746Z,10.50
2022-09-15T09:01:49.867Z,9.10
2022-09-15T09:02:49.787Z,9.40
2022-09-15T09:03:49.693Z,7.60
2022-09-15T09:04:49.834Z,7.50
2022-09-15T09:05:49.662Z,7.00
2022-09-15T09:06:49.643Z,9.50
2022-09-15T09:07:49.634Z,9.40
2022-09-15T09:08:49.622Z,9.60
2022-09-15T09:09:49.613Z,8.60
2022-09-15T09:10:49.656Z,6.60
2022-09-15T09:11:49.604Z,8.80
2022-09-15T09:12:49.574Z,8.00
2022-09-15T09:13:49.573Z,8.50
2022-09-15T09:14:49.553Z,6.60
2022-09-15T09:15:49.634Z,9.30
2022-09-15T09:16:49.675Z,8.00
2022-09-15T09:17:49.563Z,8.90
2022-09-15T09:18:49.514Z,7.30
2022-09-15T09:19:49.503Z,6.50
2022-09-15T09:20:49.490Z,8.90
2022-09-15T09:21:49.504Z,8.00
2022-09-15T09:22:49.464Z,8.90
2022-09-15T09:23:49.487Z,9.30
2022-09-15T09:24:49.453Z,7.90
2022-09-15T09:25:49.455Z,9.70
2022-09-15T09:26:49.426Z,8.60
2022-09-15T09:27:49.463Z,8.50
2022-09-15T09:28:49.401Z,6.40
2022-09-15T09:29:49.412Z,10.80
2022-09-15T09:30:49.482Z,8.50
2022-09-15T09:31:49.373Z,7.90
2022-09-15T09:32:49.390Z,6.20
2022-09-15T09:33:49.420Z,9.00
2022-09-15T09:34:49.363Z,10.40
2022-09-15T09:35:49.355Z,6.20
2022-09-15T09:36:49.313Z,8.40
2022-09-15T09:37:49.442Z,7.00
2022-09-15T09:38:49.293Z,20.70
2022-09-15T09:39:49.342Z,8.50
2022-09-15T09:40:49.274Z,7.10
2022-09-15T09:41:49.264Z,8.50
2022-09-15T09:42:49.256Z,7.20
2022-09-15T09:43:49.268Z,11.00
2022-09-15T09:44:49.233Z,7.30
2022-09-15T09:45:49.224Z,8.50
2022-09-15T09:46:49.235Z,8.20
2022-09-15T09:47:49.219Z,5.70
2022-09-15T09:48:49.183Z,8.10
2022-09-15T09:49:49.214Z,6.30
2022-09-15T09:50:49.162Z,11.90
2022-09-15T09:51:49.191Z,6.00
2022-09-15T09:52:49.175Z,8.00
2022-09-15T09:53:49.177Z,8.40
2022-09-15T09:54:49.115Z,6.20
2022-09-15T09:55:49.122Z,6.70
2022-09-15T09:56:49.110Z,7.80
2022-09-15T09:57:49.123Z,6.40
2022-09-15T09:58:49.101Z,8.50
2022-09-15T09:59:49.074Z,5.80
2022-09-15T10:00:49.056Z,12.50
2022-09-15T10:01:49.157Z,7.20
2022-09-15T10:02:49.086Z,6.90
2022-09-15T10:03:49.038Z,9.50
2022-09-15T10:04:49.097Z,4.90
2022-09-15T10:05:49.003Z,7.50
2022-09-15T10:06:48.984Z,6.30
2022-09-15T10:07:48.982Z,9.70
2022-09-15T10:08:48.997Z,7.10
2022-09-15T10:09:48.965Z,5.70
2022-09-15T10:10:48.943Z,7.90
2022-09-15T10:11:49.013Z,6.90
2022-09-15T10:12:48.913Z,5.80
2022-09-15T10:13:48.928Z,6.30
2022-09-15T10:14:48.907Z,7.70
2022-09-15T10:15:48.891Z,6.60
2022-09-15T10:16:49.002Z,6.80
2022-09-15T10:17:48.876Z,6.60
2022-09-15T10:18:52.268Z,8.10
2022-09-15T10:19:49.860Z,6.10
2022-09-15T10:20:48.835Z,6.80
2022-09-15T10:21:48.825Z,7.70
2022-09-15T10:22:48.868Z,7.30
2022-09-15T10:23:48.841Z,9.60
2022-09-15T10:24:48.795Z,9.10
2022-09-15T10:25:59.253Z,7.00
2022-09-15T10:26:49.797Z,8.60
2022-09-15T10:27:48.765Z,6.80
2022-09-15T10:28:48.754Z,8.90
2022-09-15T10:29:50.615Z,8.20
2022-09-15T10:30:48.725Z,7.30
2022-09-15T10:31:48.801Z,10.00
2022-09-15T10:32:48.716Z,7.70
2022-09-15T10:33:48.695Z,7.80
2022-09-15T10:34:48.682Z,7.80
2022-09-15T10:35:48.702Z,7.50
2022-09-15T10:36:48.664Z,9.70
2022-09-15T10:37:48.654Z,8.70
2022-09-15T10:38:48.634Z,6.00
2022-09-15T10:39:48.694Z,5.80
2022-09-15T10:40:48.646Z,10.50
2022-09-15T10:41:48.615Z,8.80
2022-09-15T10:42:48.596Z,6.20
2022-09-15T10:43:48.594Z,6.90
2022-09-15T10:44:48.576Z,8.10
2022-09-15T10:45:48.682Z,7.30
2022-09-15T10:46:48.553Z,7.10
2022-09-15T10:47:48.575Z,8.70
2022-09-15T10:48:48.535Z,10.20
2022-09-15T10:49:48.535Z,4.90
2022-09-15T10:50:48.566Z,8.00
2022-09-15T10:51:48.507Z,6.90
2022-09-15T10:52:48.494Z,10.20
2022-09-15T10:53:48.482Z,5.90
2022-09-15T10:54:48.465Z,6.80
2022-09-15T10:55:52.981Z,6.90
2022-09-15T10:56:48.452Z,8.20
2022-09-15T10:57:48.445Z,7.30
2022-09-15T10:58:48.688Z,7.60
2022-09-15T10:59:48.415Z,8.20
2022-09-15T11:00:48.470Z,5.80
2022-09-15T11:01:48.435Z,8.10
2022-09-15T11:02:48.375Z,9.00
2022-09-15T11:03:48.375Z,4.80
2022-09-15T11:04:48.354Z,7.60
2022-09-15T11:05:48.344Z,7.90
2022-09-15T11:06:48.363Z,8.70
2022-09-15T11:07:48.346Z,8.20
2022-09-15T11:08:48.324Z,5.30
2022-09-15T11:09:48.304Z,5.70
2022-09-15T11:10:48.294Z,6.20
2022-09-15T11:11:48.284Z,9.30
2022-09-15T11:12:48.314Z,6.30
2022-09-15T11:13:48.264Z,6.70
2022-09-15T11:14:48.265Z,9.30
2022-09-15T11:15:48.243Z,9.70
2022-09-15T11:16:48.255Z,7.80
2022-09-15T11:17:48.225Z,7.70
2022-09-15T11:18:48.206Z,6.20
2022-09-15T11:19:48.233Z,7.20
2022-09-15T11:20:48.192Z,4.60
2022-09-15T11:21:48.227Z,7.00
2022-09-15T11:22:49.702Z,7.60
2022-09-15T11:23:48.155Z,11.50
2022-09-15T11:24:48.136Z,8.50
2022-09-15T11:25:48.164Z,9.10
2022-09-15T11:26:48.115Z,4.60
2022-09-15T11:27:48.174Z,7.20
2022-09-15T11:28:48.094Z,6.80
2022-09-15T11:29:48.099Z,5.60
2022-09-15T11:30:48.086Z,4.90
2022-09-15T11:31:48.177Z,7.90
2022-09-15T11:32:48.092Z,6.80
2022-09-15T11:33:48.055Z,6.40
2022-09-15T11:34:48.065Z,6.40
2022-09-15T11:35:48.026Z,7.10
2022-09-15T11:36:48.016Z,4.40
2022-09-15T11:37:48.006Z,7.40
2022-09-15T11:38:48.030Z,6.70
2022-09-15T11:39:48.033Z,5.70
2022-09-15T11:40:48.028Z,5.60
2022-09-15T11:41:47.955Z,6.10
2022-09-15T11:42:47.955Z,7.50
2022-09-15T11:43:47.935Z,4.70
2022-09-15T11:44:47.917Z,6.40
2022-09-15T11:45:47.924Z,6.60
2022-09-15T11:46:48.007Z,4.30
2022-09-15T11:47:47.895Z,5.60
2022-09-15T11:48:47.876Z,4.50
2022-09-15T11:49:47.874Z,5.10
2022-09-15T11:50:47.857Z,6.40
2022-09-15T11:51:48.034Z,5.30
2022-09-15T11:52:47.834Z,5.40
2022-09-15T11:53:47.827Z,5.30
2022-09-15T11:54:47.815Z,5.50
2022-09-15T11:55:51.795Z,7.00
2022-09-15T11:56:47.794Z,4.60
2022-09-15T11:57:47.796Z,7.00
2022-09-15T11:58:47.764Z,9.00
2022-09-15T11:59:47.763Z,6.70
2022-09-15T12:00:47.744Z,4.60
2022-09-15T12:01:47.776Z,6.10
2022-09-15T12:02:47.756Z,6.10
2022-09-15T12:03:47.804Z,6.80
2022-09-15T12:04:47.704Z,4.60
2022-09-15T12:05:47.703Z,6.30
2022-09-15T12:06:47.720Z,6.10
2022-09-15T12:07:47.677Z,6.50
2022-09-15T12:08:47.656Z,6.60
2022-09-15T12:09:47.705Z,5.50
2022-09-15T12:10:47.645Z,9.40
2022-09-15T12:11:47.635Z,6.10
2022-09-15T12:12:47.615Z,3.80
2022-09-15T12:13:47.609Z,6.40
2022-09-15T12:14:47.616Z,4.60
2022-09-15T12:15:47.676Z,7.30
2022-09-15T12:16:47.604Z,5.70
2022-09-15T12:17:47.564Z,5.50
2022-09-15T12:18:47.592Z,5.80
2022-09-15T12:19:47.545Z,6.60
2022-09-15T12:20:47.553Z,4.80
2022-09-15T12:21:47.525Z,5.00
2022-09-15T12:22:47.515Z,5.20
2022-09-15T12:23:47.506Z,5.00
2022-09-15T12:24:47.545Z,6.00
2022-09-15T12:25:47.485Z,4.20
2022-09-15T12:26:47.495Z,7.80
2022-09-15T12:27:47.469Z,5.20
2022-09-15T12:28:47.465Z,9.10
2022-09-15T12:29:47.436Z,4.80
2022-09-15T12:30:49.316Z,5.20
2022-09-15T12:31:47.416Z,5.80
2022-09-15T12:32:47.436Z,7.20
2022-09-15T12:33:47.452Z,6.90
2022-09-15T12:34:47.416Z,4.10
2022-09-15T12:35:47.375Z,6.20
2022-09-15T12:36:47.410Z,7.30
2022-09-15T12:37:47.394Z,5.50
2022-09-15T12:38:47.346Z,7.30
2022-09-15T12:39:47.420Z,4.50
2022-09-15T12:40:47.313Z,5.60
2022-09-15T12:41:47.306Z,6.70
2022-09-15T12:42:47.434Z,7.70
2022-09-15T12:43:47.288Z,8.60
2022-09-15T12:44:47.275Z,6.20
2022-09-15T12:45:47.267Z,10.60
2022-09-15T12:46:47.302Z,7.10
2022-09-15T12:47:47.265Z,5.00
2022-09-15T12:48:47.721Z,6.20
2022-09-15T12:49:47.226Z,9.80
2022-09-15T12:50:47.241Z,5.30
2022-09-15T12:51:47.197Z,7.60
2022-09-15T12:52:47.187Z,9.50
2022-09-15T12:53:47.329Z,7.60
2022-09-15T12:54:47.167Z,5.90
2022-09-15T12:55:47.153Z,8.70
2022-09-15T12:56:47.146Z,9.00
2022-09-15T12:57:47.137Z,8.10
2022-09-15T12:58:47.158Z,8.40
2022-09-15T12:59:47.115Z,5.20
2022-09-15T13:01:07.282Z,7.30
2022-09-15T13:01:48.157Z,7.40